createdAt,value
2022-08-23T00:03:59.943Z,100.00
2022-08-23T00:09:23.704Z,100.00
2022-08-23T00:14:49.305Z,100.00
2022-08-23T00:20:14.962Z,100.00
2022-08-23T00:25:36.821Z,100.00
2022-08-23T00:30:59.589Z,100.00
2022-08-23T00:36:21.405Z,100.00
2022-08-23T00:41:44.201Z,100.00
2022-08-23T00:47:07.774Z,100.00
2022-08-23T00:52:38.070Z,100.00
2022-08-23T00:58:01.541Z,100.00
2022-08-23T01:03:25.947Z,100.00
2022-08-23T01:08:54.703Z,100.00
2022-08-23T01:14:19.654Z,100.00
2022-08-23T01:19:48.595Z,100.00
2022-08-23T01:25:14.244Z,100.00
2022-08-23T01:30:36.341Z,100.00
2022-08-23T01:36:00.991Z,100.00
2022-08-23T01:41:26.017Z,100.00
2022-08-23T01:46:47.871Z,100.00
2022-08-23T01:52:09.699Z,100.00
2022-08-23T01:57:33.797Z,100.00
2022-08-23T02:02:55.944Z,100.00
2022-08-23T02:08:17.805Z,100.00
2022-08-23T02:13:39.637Z,100.00
2022-08-23T02:19:03.028Z,100.00
2022-08-23T02:24:25.775Z,100.00
2022-08-23T02:29:47.717Z,100.00
2022-08-23T02:35:09.624Z,100.00
2022-08-23T02:40:31.468Z,100.00
2022-08-23T02:45:53.300Z,100.00
2022-08-23T02:51:15.830Z,100.00
2022-08-23T02:56:37.706Z,100.00
2022-08-23T03:01:59.604Z,100.00
2022-08-23T03:07:21.488Z,100.00
2022-08-23T03:12:43.320Z,100.00
2022-08-23T03:18:05.982Z,100.00
2022-08-23T03:23:28.444Z,100.00
2022-08-23T03:28:50.346Z,100.00
2022-08-23T03:34:12.393Z,100.00
2022-08-23T03:39:34.307Z,100.00
2022-08-23T03:44:56.931Z,100.00
2022-08-23T03:50:24.483Z,100.00
2022-08-23T03:55:46.707Z,100.00
2022-08-23T04:01:08.525Z,100.00
2022-08-23T04:06:30.352Z,100.00
2022-08-23T04:11:52.155Z,100.00
2022-08-23T04:17:15.109Z,100.00
2022-08-23T04:22:37.011Z,100.00
2022-08-23T04:27:59.659Z,100.00
2022-08-23T04:33:22.252Z,100.00
2022-08-23T04:38:44.092Z,100.00
2022-08-23T04:44:05.985Z,100.00
2022-08-23T04:49:27.776Z,100.00
2022-08-23T04:54:49.649Z,100.00
2022-08-23T05:00:13.059Z,100.00
2022-08-23T05:05:34.880Z,100.00
2022-08-23T05:11:00.429Z,100.00
2022-08-23T05:16:22.315Z,100.00
2022-08-23T05:21:44.363Z,100.00
2022-08-23T05:27:07.877Z,100.00
2022-08-23T05:32:33.650Z,86.22
2022-08-23T05:37:55.714Z,85.04
2022-08-23T05:43:17.895Z,81.79
2022-08-23T05:48:43.241Z,85.11
2022-08-23T05:54:08.010Z,86.27
2022-08-23T05:59:30.798Z,84.13
2022-08-23T06:04:57.159Z,82.16
2022-08-23T06:10:19.637Z,80.07
2022-08-23T06:15:44.920Z,82.46
2022-08-23T06:21:09.197Z,83.92
2022-08-23T06:26:34.516Z,84.90
2022-08-23T06:31:56.348Z,87.75
2022-08-23T06:37:18.252Z,79.26
2022-08-23T06:42:40.580Z,80.37
2022-08-23T06:48:02.715Z,80.87
2022-08-23T06:53:24.712Z,80.11
2022-08-23T06:58:46.534Z,78.88
2022-08-23T07:04:11.084Z,77.54
2022-08-23T07:09:33.526Z,80.04
2022-08-23T07:14:55.355Z,75.69
2022-08-23T07:20:17.375Z,71.57
2022-08-23T07:25:42.251Z,71.92
2022-08-23T07:31:12.377Z,63.82
2022-08-23T07:36:37.857Z,66.18
2022-08-23T07:42:01.359Z,67.27
2022-08-23T07:47:48.249Z,70.63
2022-08-23T07:53:11.984Z,70.99
2022-08-23T07:58:34.147Z,68.79
2022-08-23T08:03:58.720Z,62.54
2022-08-23T08:09:20.584Z,60.09
2022-08-23T08:14:42.413Z,57.61
2022-08-23T08:20:04.985Z,64.13
2022-08-23T08:25:26.924Z,68.71
2022-08-23T08:30:48.726Z,71.86
2022-08-23T08:36:36.177Z,70.47
2022-08-23T08:42:05.276Z,68.70
2022-08-23T08:47:40.852Z,65.19
2022-08-23T08:53:13.069Z,64.20
2022-08-23T08:58:49.220Z,65.23
2022-08-23T09:04:11.502Z,66.54
2022-08-23T09:10:05.195Z,63.39
2022-08-23T09:15:40.497Z,63.24
2022-08-23T09:21:05.520Z,66.54
2022-08-23T09:26:30.845Z,68.13
2022-08-23T09:31:55.097Z,64.38
2022-08-23T09:37:18.596Z,61.30
2022-08-23T09:42:42.051Z,58.72
2022-08-23T09:48:05.711Z,55.37
2022-08-23T09:53:27.564Z,59.92
2022-08-23T09:58:50.073Z,61.34
2022-08-23T10:04:21.542Z,63.34
2022-08-23T10:09:43.393Z,62.48
2022-08-23T10:15:05.672Z,62.70
2022-08-23T10:20:50.807Z,58.60
2022-08-23T10:26:25.143Z,53.97
2022-08-23T10:32:02.373Z,53.80
2022-08-23T10:37:33.143Z,54.78
2022-08-23T10:43:19.785Z,52.14
2022-08-23T10:48:52.415Z,52.21
2022-08-23T10:54:30.817Z,51.26
2022-08-23T10:59:53.111Z,50.73
2022-08-23T11:05:26.356Z,51.59
2022-08-23T11:10:56.029Z,50.16
2022-08-23T11:16:30.554Z,50.87
2022-08-23T11:22:14.287Z,49.22
2022-08-23T11:27:41.524Z,49.55
2022-08-23T11:33:34.419Z,48.71
2022-08-23T11:38:56.190Z,48.86
2022-08-23T11:44:24.106Z,47.78
2022-08-23T11:50:06.087Z,46.06
2022-08-23T11:55:49.226Z,48.52
2022-08-23T12:01:13.888Z,47.17
2022-08-23T12:06:51.267Z,48.17
2022-08-23T12:12:13.231Z,49.31
2022-08-23T12:17:35.005Z,48.78
2022-08-23T12:23:15.548Z,47.74
2022-08-23T12:28:43.728Z,47.40
2022-08-23T12:34:20.874Z,46.55
2022-08-23T12:39:52.751Z,46.42
2022-08-23T12:45:22.916Z,45.24
2022-08-23T12:50:51.686Z,44.55
2022-08-23T12:56:31.561Z,45.27
2022-08-23T13:01:54.579Z,44.89
2022-08-23T13:07:22.420Z,43.79
2022-08-23T13:12:44.763Z,44.38
2022-08-23T13:18:06.869Z,42.72
2022-08-23T13:23:28.995Z,44.13
2022-08-23T13:29:06.371Z,42.27
2022-08-23T13:34:47.198Z,42.41
2022-08-23T13:40:18.435Z,40.92
2022-08-23T13:45:51.268Z,41.39
2022-08-23T13:51:28.404Z,42.78
2022-08-23T13:56:53.809Z,42.11
2022-08-23T14:02:16.191Z,44.93
2022-08-23T14:07:38.024Z,44.56
2022-08-23T14:13:00.344Z,42.88
2022-08-23T14:18:22.308Z,44.59
2022-08-23T14:23:44.146Z,44.97
2022-08-23T14:29:05.942Z,45.61
2022-08-23T14:34:29.478Z,45.85
2022-08-23T14:39:51.526Z,46.24
2022-08-23T14:45:15.648Z,45.93
2022-08-23T14:50:38.671Z,46.57
2022-08-23T14:56:20.264Z,46.45
2022-08-23T15:01:42.583Z,46.92
2022-08-23T15:07:20.979Z,47.01
2022-08-23T15:13:12.918Z,47.70
2022-08-23T15:18:25.434Z,47.07
2022-08-23T15:23:47.477Z,46.64
2022-08-23T15:29:09.278Z,47.80
2022-08-23T15:34:33.347Z,46.62
2022-08-23T15:39:57.521Z,46.64
2022-08-23T15:45:19.529Z,46.62
2022-08-23T15:50:44.656Z,46.09
2022-08-23T15:56:13.231Z,47.80
2022-08-23T16:01:35.108Z,46.90
2022-08-23T16:06:58.209Z,47.16
2022-08-23T16:12:20.070Z,47.83
2022-08-23T16:17:41.982Z,47.95
2022-08-23T16:23:04.200Z,47.09
2022-08-23T16:28:26.146Z,50.54
2022-08-23T16:33:48.299Z,57.96
2022-08-23T16:39:11.265Z,61.39
2022-08-23T16:44:34.324Z,63.96
2022-08-23T16:49:56.179Z,64.94
2022-08-23T16:55:18.138Z,66.55
2022-08-23T17:00:40.468Z,67.05
2022-08-23T17:06:02.311Z,68.27
2022-08-23T17:11:24.187Z,70.13
2022-08-23T17:16:52.032Z,70.93
2022-08-23T17:22:13.969Z,72.43
2022-08-23T17:27:37.048Z,72.89
2022-08-23T17:32:59.349Z,73.16
2022-08-23T17:38:21.223Z,74.43
2022-08-23T17:43:43.022Z,74.66
2022-08-23T17:49:06.573Z,74.79
2022-08-23T17:54:28.408Z,75.79
2022-08-23T17:59:50.276Z,75.85
2022-08-23T18:05:12.509Z,76.52
2022-08-23T18:10:34.882Z,77.49
2022-08-23T18:15:56.751Z,77.02
2022-08-23T18:21:18.592Z,78.38
2022-08-23T18:26:42.997Z,79.46
2022-08-23T18:32:06.964Z,80.96
2022-08-23T18:37:28.904Z,82.23
2022-08-23T18:42:50.973Z,82.66
2022-08-23T18:48:12.981Z,84.57
2022-08-23T18:53:35.465Z,83.80
2022-08-23T18:58:57.295Z,85.33
2022-08-23T19:04:19.253Z,86.33
2022-08-23T19:09:41.295Z,88.74
2022-08-23T19:15:04.043Z,89.47
2022-08-23T19:20:25.934Z,89.54
2022-08-23T19:25:48.389Z,88.31
2022-08-23T19:31:10.352Z,88.95
2022-08-23T19:36:46.249Z,89.22
2022-08-23T19:42:11.699Z,88.89
2022-08-23T19:47:34.303Z,88.78
2022-08-23T19:52:58.528Z,89.30
2022-08-23T19:58:20.374Z,89.42
2022-08-23T20:03:42.219Z,89.61
2022-08-23T20:09:05.684Z,89.77
2022-08-23T20:14:29.774Z,90.76
2022-08-23T20:19:51.599Z,90.91
2022-08-23T20:25:13.607Z,91.44
2022-08-23T20:30:36.081Z,91.46
2022-08-23T20:35:57.871Z,91.98
2022-08-23T20:41:20.380Z,91.95
2022-08-23T20:46:42.711Z,92.56
2022-08-23T20:52:05.922Z,92.78
2022-08-23T20:57:28.556Z,92.94
2022-08-23T21:02:53.861Z,93.76
2022-08-23T21:08:16.570Z,93.50
2022-08-23T21:13:38.998Z,94.64
2022-08-23T21:19:01.386Z,94.21
2022-08-23T21:24:23.226Z,93.91
2022-08-23T21:29:45.044Z,94.79
2022-08-23T21:35:07.394Z,95.59
2022-08-23T21:40:30.462Z,96.35
2022-08-23T21:45:52.389Z,96.53
2022-08-23T21:51:14.325Z,96.40
2022-08-23T21:56:37.271Z,96.42
2022-08-23T22:01:59.107Z,96.67
2022-08-23T22:07:21.091Z,99.91
2022-08-23T22:12:43.138Z,95.86
2022-08-23T22:18:05.678Z,98.07
2022-08-23T22:23:29.561Z,98.80
2022-08-23T22:28:51.357Z,99.38
2022-08-23T22:34:13.235Z,97.76
2022-08-23T22:39:35.127Z,97.57
2022-08-23T22:44:56.954Z,98.01
2022-08-23T22:50:18.831Z,97.71
2022-08-23T22:55:41.047Z,97.28
2022-08-23T23:01:05.710Z,98.31
2022-08-23T23:06:33.104Z,97.33
2022-08-23T23:11:54.998Z,97.55
2022-08-23T23:17:16.802Z,98.15
2022-08-23T23:22:38.653Z,98.19
2022-08-23T23:28:01.110Z,98.15
2022-08-23T23:39:51.382Z,98.67
2022-08-23T23:45:13.926Z,98.77
2022-08-23T23:50:39.555Z,98.80
2022-08-23T23:56:09.773Z,98.89
